Portada
METAR-TAF:

METAR-TAF

Aeroports :

Anchorage, Alaska, Estats Units d'Amèrica

latitud: 61-11N, longitud: 149-58W, altitud: 22 m

Observació

L'informe es va fer fa 13 minuts, a les 23:53 UTC
Vent 6 kt del Nord
Temperatura -14°C
Humitat 51%
Pressió 1005 hPa
Visibilitat: 16.1 km
Cel clar

METAR: PALH 182353Z 01006KT 10SM CLR M14/M22 A2968 RMK AO2 SLP053 T11391217 11139 21178 56016

Hora: 15:06 (00:06 UTC)


TAF: manca

Observacions i pronòstics meteorològics de més de 4000 aeroports (METAR i TAF).

Les estacions disponibles són els punts grocs i vermells al mapa.

Posi el ratolí al punt desitjat per veure el nom de l'estació.

Feu clic per veure les observacions i els pronòstics meteorològics.

Per canviar el mapa: feu clic els botons verds amb una creu de color negre per apropar; al botó verd amb un guió per allunyar la imatge; o en les fletxes verdes per a mapes adjacents.


METAR-TAF: